createdAt,value
2022-09-25T00:01:10.985Z,81.62
2022-09-25T00:03:40.986Z,81.23
2022-09-25T00:06:10.499Z,81.47
2022-09-25T00:08:40.120Z,80.74
2022-09-25T00:11:09.139Z,80.60
2022-09-25T00:13:37.075Z,81.05
2022-09-25T00:16:06.703Z,81.08
2022-09-25T00:18:51.663Z,81.67
2022-09-25T00:21:20.653Z,81.94
2022-09-25T00:23:48.861Z,80.64
2022-09-25T00:26:17.738Z,80.55
2022-09-25T00:28:45.440Z,79.87
2022-09-25T00:31:19.376Z,79.44
2022-09-25T00:33:46.978Z,80.11
2022-09-25T00:36:14.547Z,81.37
2022-09-25T00:38:46.204Z,81.21
2022-09-25T00:41:13.791Z,81.49
2022-09-25T00:43:44.517Z,80.92
2022-09-25T00:46:17.480Z,80.60
2022-09-25T00:48:51.183Z,78.60
2022-09-25T00:51:29.753Z,78.40
2022-09-25T00:54:04.403Z,77.87
2022-09-25T00:56:38.695Z,77.59
2022-09-25T00:59:10.948Z,77.62
2022-09-25T01:01:38.896Z,78.80
2022-09-25T01:04:06.932Z,79.64
2022-09-25T01:06:37.087Z,79.46
2022-09-25T01:09:06.592Z,79.83
2022-09-25T01:11:34.510Z,79.46
2022-09-25T01:14:05.518Z,78.31
2022-09-25T01:16:39.440Z,77.83
2022-09-25T01:19:23.064Z,77.60
2022-09-25T01:21:55.578Z,77.79
2022-09-25T01:24:45.877Z,78.52
2022-09-25T01:27:47.113Z,78.88
2022-09-25T01:30:20.747Z,79.76
2022-09-25T01:32:59.558Z,80.05
2022-09-25T01:35:39.299Z,80.25
2022-09-25T01:38:17.136Z,80.46
2022-09-25T01:40:51.122Z,80.42
2022-09-25T01:43:23.679Z,80.54
2022-09-25T01:45:55.026Z,80.56
2022-09-25T01:48:27.077Z,80.85
2022-09-25T01:51:00.518Z,80.47
2022-09-25T01:53:32.513Z,80.23
2022-09-25T01:56:04.441Z,79.97
2022-09-25T01:58:37.125Z,79.84
2022-09-25T02:01:11.521Z,80.29
2022-09-25T02:03:44.014Z,79.89
2022-09-25T02:06:17.445Z,79.63
2022-09-25T02:08:50.409Z,78.77
2022-09-25T02:11:18.190Z,78.08
2022-09-25T02:13:50.968Z,77.81
2022-09-25T02:16:23.846Z,78.08
2022-09-25T02:19:08.697Z,78.01
2022-09-25T02:21:46.629Z,78.29
2022-09-25T02:24:20.943Z,78.06
2022-09-25T02:26:49.551Z,77.33
2022-09-25T02:29:17.622Z,76.97
2022-09-25T02:31:50.816Z,76.69
2022-09-25T02:34:18.584Z,76.83
2022-09-25T02:36:46.382Z,77.15
2022-09-25T02:39:17.247Z,77.63
2022-09-25T02:41:59.263Z,77.03
2022-09-25T02:44:37.262Z,76.09
2022-09-25T02:47:19.232Z,75.71
2022-09-25T02:49:52.148Z,76.62
2022-09-25T02:52:28.555Z,75.33
2022-09-25T02:55:02.292Z,76.02
2022-09-25T02:57:37.789Z,76.94
2022-09-25T03:00:10.475Z,77.89
2022-09-25T03:02:41.497Z,78.57
2022-09-25T03:05:13.600Z,79.36
2022-09-25T03:07:55.499Z,79.35
2022-09-25T03:10:24.646Z,80.08
2022-09-25T03:12:52.270Z,79.74
2022-09-25T03:15:23.782Z,80.10
2022-09-25T03:17:53.222Z,80.67
2022-09-25T03:20:20.793Z,80.32
2022-09-25T03:22:48.354Z,80.25
2022-09-25T03:25:16.559Z,80.05
2022-09-25T03:27:44.131Z,79.96
2022-09-25T03:30:12.281Z,79.84
2022-09-25T03:32:42.108Z,80.09
2022-09-25T03:35:11.295Z,80.19
2022-09-25T03:37:39.168Z,80.24
2022-09-25T03:40:08.311Z,80.33
2022-09-25T03:42:36.332Z,80.46
2022-09-25T03:45:04.022Z,80.06
2022-09-25T03:47:31.649Z,80.68
2022-09-25T03:49:59.184Z,79.86
2022-09-25T03:52:28.114Z,79.46
2022-09-25T03:54:55.680Z,79.85
2022-09-25T03:57:23.265Z,79.74
2022-09-25T03:59:50.955Z,80.48
2022-09-25T04:02:18.558Z,80.58
2022-09-25T04:04:46.420Z,80.37
2022-09-25T04:07:13.994Z,80.63
2022-09-25T04:09:42.989Z,80.27
2022-09-25T04:12:11.312Z,80.04
2022-09-25T04:14:38.912Z,79.71
2022-09-25T04:17:06.454Z,79.46
2022-09-25T04:19:34.112Z,79.63
2022-09-25T04:22:01.692Z,79.55
2022-09-25T04:24:47.070Z,79.89
2022-09-25T04:27:17.259Z,80.42
2022-09-25T04:29:44.895Z,80.43
2022-09-25T04:32:29.832Z,80.48
2022-09-25T04:34:58.274Z,80.39
2022-09-25T04:37:27.080Z,80.21
2022-09-25T04:39:54.991Z,80.02
2022-09-25T04:42:25.056Z,79.73
2022-09-25T04:44:53.839Z,79.09
2022-09-25T04:47:21.584Z,77.28
2022-09-25T04:49:49.741Z,76.99
2022-09-25T04:52:18.868Z,77.17
2022-09-25T04:54:47.622Z,77.59
2022-09-25T04:57:27.603Z,77.80
2022-09-25T05:00:07.277Z,77.78
2022-09-25T05:02:35.114Z,77.53
2022-09-25T05:05:03.349Z,77.97
2022-09-25T05:07:30.976Z,78.46
2022-09-25T05:09:58.782Z,77.92
2022-09-25T05:12:26.338Z,77.51
2022-09-25T05:14:54.315Z,77.75
2022-09-25T05:17:23.265Z,78.20
2022-09-25T05:19:50.879Z,77.98
2022-09-25T05:22:18.485Z,76.81
2022-09-25T05:24:46.135Z,76.32
2022-09-25T05:27:13.756Z,76.62
2022-09-25T05:29:41.367Z,76.78
2022-09-25T05:32:08.957Z,77.15
2022-09-25T05:34:37.842Z,77.29
2022-09-25T05:37:05.382Z,77.35
2022-09-25T05:39:33.004Z,77.18
2022-09-25T05:42:02.398Z,76.53
2022-09-25T05:44:29.980Z,76.44
2022-09-25T05:46:57.636Z,76.78
2022-09-25T05:49:25.348Z,77.77
2022-09-25T05:51:54.279Z,78.15
2022-09-25T05:54:21.842Z,78.03
2022-09-25T05:56:49.398Z,78.68
2022-09-25T05:59:17.107Z,79.01
2022-09-25T06:01:45.036Z,79.09
2022-09-25T06:04:12.814Z,78.77
2022-09-25T06:06:40.588Z,77.82
2022-09-25T06:09:09.508Z,76.68
2022-09-25T06:11:37.410Z,76.38
2022-09-25T06:14:05.057Z,76.24
2022-09-25T06:16:33.520Z,75.89
2022-09-25T06:19:01.160Z,75.73
2022-09-25T06:21:28.721Z,75.47
2022-09-25T06:23:56.287Z,75.26
2022-09-25T06:26:25.883Z,74.88
2022-09-25T06:28:53.930Z,75.34
2022-09-25T06:31:21.605Z,75.90
2022-09-25T06:33:51.549Z,76.13
2022-09-25T06:36:19.131Z,76.59
2022-09-25T06:38:46.946Z,76.09
2022-09-25T06:41:14.519Z,76.34
2022-09-25T06:43:43.480Z,75.71
2022-09-25T06:46:11.104Z,75.54
2022-09-25T06:48:39.459Z,75.34
2022-09-25T06:51:08.776Z,75.10
2022-09-25T06:53:36.674Z,74.84
2022-09-25T06:56:04.724Z,75.39
2022-09-25T06:58:32.371Z,76.04
2022-09-25T07:01:03.207Z,76.29
2022-09-25T07:03:44.973Z,75.49
2022-09-25T07:06:14.514Z,75.85
2022-09-25T07:08:43.589Z,76.12
2022-09-25T07:11:13.690Z,75.75
2022-09-25T07:13:41.966Z,75.60
2022-09-25T07:16:14.441Z,75.33
2022-09-25T07:18:43.711Z,74.79
2022-09-25T07:21:13.216Z,75.22
2022-09-25T07:23:42.093Z,75.26
2022-09-25T07:26:12.346Z,75.24
2022-09-25T07:28:42.007Z,75.47
2022-09-25T07:31:16.988Z,75.32
2022-09-25T07:33:44.906Z,76.00
2022-09-25T07:36:13.007Z,75.99
2022-09-25T07:38:41.191Z,75.92
2022-09-25T07:41:11.583Z,75.94
2022-09-25T07:43:39.426Z,75.79
2022-09-25T07:46:07.895Z,76.04
2022-09-25T07:48:37.161Z,76.04
2022-09-25T07:51:06.391Z,76.29
2022-09-25T07:53:34.004Z,76.37
2022-09-25T07:56:06.486Z,76.33
2022-09-25T07:58:36.110Z,76.04
2022-09-25T08:01:06.016Z,75.45
2022-09-25T08:03:34.082Z,75.21
2022-09-25T08:06:04.786Z,74.89
2022-09-25T08:08:34.264Z,74.53
2022-09-25T08:11:02.894Z,75.28
2022-09-25T08:13:30.473Z,75.60
2022-09-25T08:15:58.185Z,75.82
2022-09-25T08:18:25.830Z,75.94
2022-09-25T08:20:53.474Z,76.11
2022-09-25T08:23:23.744Z,76.14
2022-09-25T08:25:51.386Z,76.27
2022-09-25T08:28:18.957Z,75.88
2022-09-25T08:30:47.333Z,75.82
2022-09-25T08:33:15.890Z,75.92
2022-09-25T08:35:44.542Z,76.30
2022-09-25T08:38:12.274Z,75.95
2022-09-25T08:40:52.625Z,76.04
2022-09-25T08:43:24.205Z,76.16
2022-09-25T08:46:11.525Z,75.97
2022-09-25T08:49:06.253Z,75.22
2022-09-25T08:51:37.449Z,74.66
2022-09-25T08:54:06.702Z,74.91
2022-09-25T08:56:37.525Z,74.92
2022-09-25T08:59:12.088Z,75.17
2022-09-25T09:01:47.152Z,75.53
2022-09-25T09:04:20.287Z,75.37
2022-09-25T09:07:24.712Z,75.58
2022-09-25T09:09:45.408Z,76.00
2022-09-25T09:12:18.451Z,75.89
2022-09-25T09:14:48.587Z,76.53
2022-09-25T09:17:19.814Z,76.25
2022-09-25T09:19:50.033Z,76.26
2022-09-25T09:22:23.918Z,75.81
2022-09-25T09:25:03.686Z,75.16
2022-09-25T09:27:59.398Z,74.50
2022-09-25T09:30:36.015Z,75.06
2022-09-25T09:33:22.507Z,74.93
2022-09-25T09:36:06.865Z,75.19
2022-09-25T09:38:44.940Z,75.92
2022-09-25T09:41:23.408Z,75.75
2022-09-25T09:44:04.059Z,76.06
2022-09-25T09:46:44.708Z,76.07
2022-09-25T09:49:18.311Z,75.92
2022-09-25T09:51:52.797Z,75.32
2022-09-25T09:54:26.921Z,75.54
2022-09-25T09:56:57.650Z,75.42
2022-09-25T09:59:31.466Z,75.64
2022-09-25T10:02:06.078Z,75.37
2022-09-25T10:04:37.443Z,75.23
2022-09-25T10:07:08.244Z,74.90
2022-09-25T10:09:37.192Z,74.21
2022-09-25T10:12:11.401Z,74.11
2022-09-25T10:14:44.116Z,74.16
2022-09-25T10:17:15.181Z,74.33
2022-09-25T10:19:49.675Z,74.09
2022-09-25T10:22:20.263Z,73.89
2022-09-25T10:24:53.481Z,74.05
2022-09-25T10:27:30.025Z,73.42
2022-09-25T10:30:18.024Z,72.54
2022-09-25T10:32:57.338Z,72.94
2022-09-25T10:35:28.216Z,73.19
2022-09-25T10:37:58.268Z,73.19
2022-09-25T10:40:29.412Z,72.33
2022-09-25T10:43:06.349Z,73.08
2022-09-25T10:45:37.062Z,71.93
2022-09-25T10:48:42.977Z,71.35
2022-09-25T10:51:12.184Z,72.27
2022-09-25T10:53:39.769Z,71.83
2022-09-25T10:56:12.213Z,70.28
2022-09-25T10:58:43.608Z,70.41
2022-09-25T11:01:14.313Z,69.80
2022-09-25T11:03:49.964Z,69.98
2022-09-25T11:06:22.009Z,70.28
2022-09-25T11:08:56.258Z,69.52
2022-09-25T11:11:26.930Z,68.86
2022-09-25T11:13:58.103Z,68.97
2022-09-25T11:16:47.408Z,68.75
2022-09-25T11:19:17.356Z,68.57
2022-09-25T11:21:51.895Z,69.49
2022-09-25T11:24:24.723Z,68.13
2022-09-25T11:26:59.124Z,67.95
2022-09-25T11:29:36.276Z,69.28
2022-09-25T11:32:11.014Z,69.84
2022-09-25T11:34:57.511Z,70.27
2022-09-25T11:37:32.291Z,70.59
2022-09-25T11:40:30.566Z,70.69
2022-09-25T11:43:04.051Z,71.20
2022-09-25T11:45:36.695Z,70.52
2022-09-25T11:48:12.978Z,70.93
2022-09-25T11:50:49.742Z,68.50
2022-09-25T11:53:33.513Z,68.95
2022-09-25T11:56:18.703Z,68.26
2022-09-25T11:58:57.874Z,67.44
2022-09-25T12:01:33.893Z,68.14
2022-09-25T12:04:17.042Z,68.83
2022-09-25T12:07:01.446Z,69.60
2022-09-25T12:09:40.996Z,69.53
2022-09-25T12:12:17.361Z,69.21
2022-09-25T12:14:52.662Z,69.35
2022-09-25T12:17:26.585Z,68.81
2022-09-25T12:20:05.499Z,69.41
2022-09-25T12:22:44.593Z,69.97
2022-09-25T12:25:35.018Z,70.40
2022-09-25T12:28:12.611Z,69.65
2022-09-25T12:30:50.289Z,69.96
2022-09-25T12:33:29.670Z,69.68
2022-09-25T12:36:03.947Z,69.33
2022-09-25T12:38:41.831Z,69.45
2022-09-25T12:41:17.993Z,69.39
2022-09-25T12:43:52.975Z,69.69
2022-09-25T12:46:27.003Z,69.61
2022-09-25T12:49:02.063Z,69.74
2022-09-25T12:51:35.942Z,69.79
2022-09-25T12:54:14.846Z,68.96
2022-09-25T12:56:51.968Z,68.92
2022-09-25T12:59:25.155Z,69.22
2022-09-25T13:01:58.730Z,68.65
2022-09-25T13:04:49.064Z,68.80
2022-09-25T13:07:24.878Z,68.38
2022-09-25T13:09:52.488Z,68.19
2022-09-25T13:12:33.309Z,68.78
2022-09-25T13:15:06.784Z,68.69
2022-09-25T13:17:34.598Z,68.60
2022-09-25T13:20:41.088Z,67.28
2022-09-25T13:23:15.011Z,67.44
2022-09-25T13:25:46.422Z,68.12
2022-09-25T13:28:21.407Z,68.78
2022-09-25T13:31:08.081Z,69.19
2022-09-25T13:33:45.150Z,70.45
2022-09-25T13:36:46.406Z,70.64
2022-09-25T13:39:46.654Z,71.11
2022-09-25T13:42:22.274Z,71.27
2022-09-25T13:44:52.603Z,71.44
2022-09-25T13:47:57.374Z,71.68
2022-09-25T13:50:32.210Z,72.38
2022-09-25T13:53:18.593Z,72.40
2022-09-25T13:56:14.408Z,73.08
2022-09-25T13:59:02.015Z,73.77
2022-09-25T14:01:36.278Z,74.46
2022-09-25T14:04:10.775Z,74.44
2022-09-25T14:06:41.530Z,74.43
2022-09-25T14:09:12.392Z,74.81
2022-09-25T14:11:45.428Z,74.95
2022-09-25T14:14:31.347Z,75.19
2022-09-25T14:17:02.546Z,75.05
2022-09-25T14:19:33.100Z,74.85
2022-09-25T14:22:03.668Z,74.81
2022-09-25T14:24:32.254Z,74.60
2022-09-25T14:27:02.644Z,74.86
2022-09-25T14:29:32.735Z,74.68
2022-09-25T14:32:50.366Z,74.85
2022-09-25T14:35:25.319Z,75.75
2022-09-25T14:38:36.771Z,75.53
2022-09-25T14:41:22.647Z,75.64
2022-09-25T14:44:04.645Z,75.18
2022-09-25T14:46:34.477Z,74.95
2022-09-25T14:49:09.386Z,73.73
2022-09-25T14:51:40.730Z,73.84
2022-09-25T14:54:12.464Z,73.91
2022-09-25T14:56:40.391Z,74.01
2022-09-25T14:59:13.666Z,74.36
2022-09-25T15:01:47.835Z,74.50
2022-09-25T15:04:26.868Z,74.71
2022-09-25T15:07:01.188Z,74.55
2022-09-25T15:09:37.183Z,74.41
2022-09-25T15:12:18.733Z,74.34
2022-09-25T15:15:02.075Z,74.37
2022-09-25T15:17:31.187Z,74.03
2022-09-25T15:20:01.138Z,74.32
2022-09-25T15:22:33.270Z,73.29
2022-09-25T15:25:04.216Z,73.46
2022-09-25T15:27:32.490Z,73.25
2022-09-25T15:30:03.032Z,73.60
2022-09-25T15:32:39.389Z,73.16
2022-09-25T15:35:18.172Z,73.59
2022-09-25T15:37:46.361Z,73.12
2022-09-25T15:40:25.714Z,73.00
2022-09-25T15:42:53.743Z,73.34
2022-09-25T15:45:42.180Z,72.77
2022-09-25T15:48:21.837Z,72.57
2022-09-25T15:50:50.023Z,72.02
2022-09-25T15:53:28.312Z,72.66
2022-09-25T15:56:06.851Z,72.30
2022-09-25T15:58:44.010Z,71.67
2022-09-25T16:01:32.872Z,70.18
2022-09-25T16:04:19.718Z,69.71
2022-09-25T16:06:49.875Z,70.28
2022-09-25T16:09:31.257Z,69.97
2022-09-25T16:12:20.302Z,70.51
2022-09-25T16:14:48.716Z,70.75
2022-09-25T16:17:23.794Z,70.70
2022-09-25T16:20:07.157Z,71.29
2022-09-25T16:22:40.778Z,71.27
2022-09-25T16:25:21.111Z,70.03
2022-09-25T16:27:49.383Z,70.30
2022-09-25T16:30:18.835Z,70.79
2022-09-25T16:32:50.489Z,70.93
2022-09-25T16:35:25.896Z,71.24
2022-09-25T16:37:54.502Z,72.10
2022-09-25T16:40:33.569Z,72.50
2022-09-25T16:43:02.355Z,72.34
2022-09-25T16:45:34.111Z,71.72
2022-09-25T16:48:29.173Z,70.69
2022-09-25T16:50:59.894Z,71.00
2022-09-25T16:53:28.080Z,71.10
2022-09-25T16:55:56.858Z,69.88
2022-09-25T16:58:24.700Z,69.63
2022-09-25T17:00:52.421Z,69.02
2022-09-25T17:03:21.835Z,71.21
2022-09-25T17:05:49.633Z,73.07
2022-09-25T17:08:19.677Z,74.03
2022-09-25T17:10:50.565Z,74.42
2022-09-25T17:13:20.285Z,75.10
2022-09-25T17:15:47.971Z,75.84
2022-09-25T17:18:21.097Z,76.48
2022-09-25T17:20:52.436Z,77.17
2022-09-25T17:23:22.108Z,77.14
2022-09-25T17:25:58.243Z,77.58
2022-09-25T17:28:28.164Z,78.08
2022-09-25T17:30:55.826Z,78.04
2022-09-25T17:33:24.270Z,78.33
2022-09-25T17:35:56.375Z,78.76
2022-09-25T17:38:24.033Z,78.79
2022-09-25T17:40:53.345Z,78.75
2022-09-25T17:43:21.269Z,79.05
2022-09-25T17:45:50.657Z,78.61
2022-09-25T17:48:24.070Z,78.78
2022-09-25T17:50:54.360Z,78.82
2022-09-25T17:53:23.712Z,78.63
2022-09-25T17:55:53.915Z,78.47
2022-09-25T17:58:23.068Z,78.05
2022-09-25T18:00:51.539Z,78.01
2022-09-25T18:03:19.784Z,78.05
2022-09-25T18:05:48.480Z,77.85
2022-09-25T18:08:17.908Z,77.82
2022-09-25T18:10:46.362Z,77.26
2022-09-25T18:13:17.238Z,77.55
2022-09-25T18:15:48.896Z,76.94
2022-09-25T18:18:16.622Z,76.82
2022-09-25T18:21:05.662Z,76.87
2022-09-25T18:23:38.623Z,76.92
2022-09-25T18:26:09.187Z,76.91
2022-09-25T18:28:36.795Z,77.60
2022-09-25T18:31:04.451Z,78.38
2022-09-25T18:33:32.106Z,78.69
2022-09-25T18:35:59.905Z,78.78
2022-09-25T18:38:27.550Z,78.72
2022-09-25T18:40:56.619Z,78.63
2022-09-25T18:43:24.214Z,78.18
2022-09-25T18:45:52.073Z,77.90
2022-09-25T18:48:19.847Z,78.08
2022-09-25T18:50:47.493Z,77.66
2022-09-25T18:53:15.251Z,77.99
2022-09-25T18:55:43.710Z,77.62
2022-09-25T18:58:13.709Z,77.81
2022-09-25T19:00:42.047Z,77.54
2022-09-25T19:03:09.697Z,77.78
2022-09-25T19:05:37.391Z,78.17
2022-09-25T19:08:05.067Z,78.54
2022-09-25T19:10:36.055Z,78.33
2022-09-25T19:13:04.178Z,77.28
2022-09-25T19:15:33.311Z,77.37
2022-09-25T19:18:00.944Z,77.15
2022-09-25T19:20:28.935Z,76.93
2022-09-25T19:22:56.525Z,76.63
2022-09-25T19:25:24.167Z,77.15
2022-09-25T19:27:51.789Z,77.13
2022-09-25T19:30:19.352Z,77.53
2022-09-25T19:32:48.709Z,77.49
2022-09-25T19:35:16.336Z,77.75
2022-09-25T19:37:43.947Z,77.90
2022-09-25T19:40:29.373Z,77.63
2022-09-25T19:42:57.827Z,78.21
2022-09-25T19:45:25.932Z,78.29
2022-09-25T19:47:54.954Z,78.54
2022-09-25T19:50:22.687Z,79.11
2022-09-25T19:52:51.389Z,79.34
2022-09-25T19:55:19.675Z,79.73
2022-09-25T19:57:47.583Z,79.80
2022-09-25T20:00:17.222Z,79.37
2022-09-25T20:02:46.431Z,79.43
2022-09-25T20:05:17.121Z,79.12
2022-09-25T20:07:44.761Z,78.95
2022-09-25T20:10:12.403Z,79.09
2022-09-25T20:12:39.942Z,79.25
2022-09-25T20:15:08.577Z,79.10
2022-09-25T20:17:36.195Z,79.67
2022-09-25T20:20:03.923Z,79.90
2022-09-25T20:22:33.119Z,80.44
2022-09-25T20:25:00.655Z,80.75
2022-09-25T20:27:28.300Z,81.13
2022-09-25T20:29:55.896Z,81.09
2022-09-25T20:32:23.841Z,81.03
2022-09-25T20:34:51.580Z,81.09
2022-09-25T20:37:19.224Z,81.26
2022-09-25T20:39:48.130Z,81.33
2022-09-25T20:42:17.040Z,81.61
2022-09-25T20:44:44.639Z,81.24
2022-09-25T20:47:12.336Z,80.86
2022-09-25T20:49:39.962Z,81.27
2022-09-25T20:52:09.931Z,81.61
2022-09-25T20:54:39.103Z,81.46
2022-09-25T20:57:08.906Z,81.68
2022-09-25T20:59:36.578Z,81.74
2022-09-25T21:02:04.959Z,81.64
2022-09-25T21:04:32.798Z,81.60
2022-09-25T21:07:01.581Z,81.54
2022-09-25T21:09:29.638Z,81.44
2022-09-25T21:11:57.752Z,81.67
2022-09-25T21:14:28.336Z,82.19
2022-09-25T21:16:57.129Z,81.94
2022-09-25T21:19:24.819Z,81.77
2022-09-25T21:21:52.543Z,81.86
2022-09-25T21:24:21.677Z,81.55
2022-09-25T21:26:49.710Z,81.84
2022-09-25T21:29:18.021Z,81.61
2022-09-25T21:31:50.156Z,81.91
2022-09-25T21:34:18.964Z,81.62
2022-09-25T21:36:46.988Z,81.50
2022-09-25T21:39:14.767Z,81.61
2022-09-25T21:41:43.213Z,80.50
2022-09-25T21:44:13.989Z,80.75
2022-09-25T21:46:41.666Z,80.22
2022-09-25T21:49:17.002Z,80.79
2022-09-25T21:51:45.682Z,80.44
2022-09-25T21:54:13.932Z,80.52
2022-09-25T21:56:41.636Z,80.14
2022-09-25T21:59:09.696Z,79.94
2022-09-25T22:01:39.836Z,79.98
2022-09-25T22:04:12.209Z,80.00
2022-09-25T22:06:41.919Z,79.39
2022-09-25T22:09:11.591Z,79.43
2022-09-25T22:11:40.012Z,79.58
2022-09-25T22:14:13.297Z,79.79
2022-09-25T22:16:44.405Z,80.00
2022-09-25T22:19:16.595Z,79.79
2022-09-25T22:21:46.219Z,79.99
2022-09-25T22:24:13.889Z,80.12
2022-09-25T22:26:43.394Z,79.94
2022-09-25T22:29:12.046Z,80.39
2022-09-25T22:31:42.866Z,80.26
2022-09-25T22:34:20.424Z,79.87
2022-09-25T22:36:48.495Z,79.78
2022-09-25T22:39:17.953Z,80.12
2022-09-25T22:41:46.862Z,81.06
2022-09-25T22:44:14.559Z,80.72
2022-09-25T22:46:42.239Z,81.11
2022-09-25T22:49:10.245Z,81.64
2022-09-25T22:51:39.187Z,81.64
2022-09-25T22:54:07.084Z,81.51
2022-09-25T22:56:35.719Z,81.27
2022-09-25T22:59:05.901Z,80.72
2022-09-25T23:01:37.830Z,80.57
2022-09-25T23:04:07.814Z,80.28
2022-09-25T23:06:36.709Z,80.21
2022-09-25T23:09:07.450Z,80.17
2022-09-25T23:11:35.386Z,80.33
2022-09-25T23:14:05.762Z,80.41
2022-09-25T23:16:34.363Z,80.29
2022-09-25T23:19:02.989Z,79.96
2022-09-25T23:21:32.367Z,80.01
2022-09-25T23:24:01.963Z,80.23
2022-09-25T23:26:31.428Z,80.41
2022-09-25T23:29:00.124Z,80.45
2022-09-25T23:31:28.203Z,80.54
2022-09-25T23:33:56.230Z,80.55
2022-09-25T23:36:25.712Z,81.21
2022-09-25T23:38:55.611Z,81.32
2022-09-25T23:41:25.099Z,81.64
2022-09-25T23:43:55.461Z,81.43
2022-09-25T23:46:24.960Z,81.24
2022-09-25T23:48:53.733Z,81.44
2022-09-25T23:51:22.880Z,81.85
2022-09-25T23:53:51.149Z,82.07
2022-09-25T23:56:20.966Z,81.97
2022-09-25T23:58:49.499Z,82.22
